sensor_id;sensor_type;location;lat;lon;timestamp;temperature;humidity
35085;SHT85;21267;51.032;6.998;2022-10-31T00:00:54;12.76;91.06
35085;SHT85;21267;51.032;6.998;2022-10-31T00:03:20;12.66;91.14
35085;SHT85;21267;51.032;6.998;2022-10-31T00:05:48;12.65;91.39
35085;SHT85;21267;51.032;6.998;2022-10-31T00:08:16;12.52;91.79
35085;SHT85;21267;51.032;6.998;2022-10-31T00:10:44;12.48;91.84
35085;SHT85;21267;51.032;6.998;2022-10-31T00:13:13;12.61;91.57
35085;SHT85;21267;51.032;6.998;2022-10-31T00:15:40;12.49;91.62
35085;SHT85;21267;51.032;6.998;2022-10-31T00:18:08;12.57;91.34
35085;SHT85;21267;51.032;6.998;2022-10-31T00:20:35;12.64;91.24
35085;SHT85;21267;51.032;6.998;2022-10-31T00:23:03;12.45;91.78
35085;SHT85;21267;51.032;6.998;2022-10-31T00:25:36;12.51;91.60
35085;SHT85;21267;51.032;6.998;2022-10-31T00:28:05;12.35;92.09
35085;SHT85;21267;51.032;6.998;2022-10-31T00:30:32;12.52;91.59
35085;SHT85;21267;51.032;6.998;2022-10-31T00:32:59;12.55;91.45
35085;SHT85;21267;51.032;6.998;2022-10-31T00:35:26;12.48;91.55
35085;SHT85;21267;51.032;6.998;2022-10-31T00:37:53;12.66;91.05
35085;SHT85;21267;51.032;6.998;2022-10-31T00:40:19;12.68;90.66
35085;SHT85;21267;51.032;6.998;2022-10-31T00:42:46;12.59;90.88
35085;SHT85;21267;51.032;6.998;2022-10-31T00:45:12;12.69;90.76
35085;SHT85;21267;51.032;6.998;2022-10-31T00:47:39;12.79;90.27
35085;SHT85;21267;51.032;6.998;2022-10-31T00:50:06;12.82;90.10
35085;SHT85;21267;51.032;6.998;2022-10-31T00:52:33;12.79;90.14
35085;SHT85;21267;51.032;6.998;2022-10-31T00:55:00;12.86;90.07
35085;SHT85;21267;51.032;6.998;2022-10-31T01:01:39;12.71;90.66
35085;SHT85;21267;51.032;6.998;2022-10-31T01:04:06;12.71;90.70
35085;SHT85;21267;51.032;6.998;2022-10-31T01:06:32;12.66;90.82
35085;SHT85;21267;51.032;6.998;2022-10-31T01:08:59;12.59;91.03
35085;SHT85;21267;51.032;6.998;2022-10-31T01:11:25;12.58;91.13
35085;SHT85;21267;51.032;6.998;2022-10-31T01:13:53;12.65;91.02
35085;SHT85;21267;51.032;6.998;2022-10-31T01:16:22;12.54;91.25
35085;SHT85;21267;51.032;6.998;2022-10-31T01:18:50;12.38;91.61
35085;SHT85;21267;51.032;6.998;2022-10-31T01:23:43;12.41;91.99
35085;SHT85;21267;51.032;6.998;2022-10-31T01:26:17;12.39;91.88
35085;SHT85;21267;51.032;6.998;2022-10-31T01:28:49;12.31;92.45
35085;SHT85;21267;51.032;6.998;2022-10-31T01:31:19;12.13;92.65
35085;SHT85;21267;51.032;6.998;2022-10-31T01:33:47;12.04;93.09
35085;SHT85;21267;51.032;6.998;2022-10-31T01:38:40;12.25;92.67
35085;SHT85;21267;51.032;6.998;2022-10-31T01:41:08;12.20;92.51
35085;SHT85;21267;51.032;6.998;2022-10-31T01:43:56;12.07;92.69
35085;SHT85;21267;51.032;6.998;2022-10-31T01:46:34;11.93;93.06
35085;SHT85;21267;51.032;6.998;2022-10-31T01:49:05;11.96;93.08
35085;SHT85;21267;51.032;6.998;2022-10-31T01:51:39;11.94;93.31
35085;SHT85;21267;51.032;6.998;2022-10-31T01:54:12;12.07;92.99
35085;SHT85;21267;51.032;6.998;2022-10-31T01:56:42;11.93;93.08
35085;SHT85;21267;51.032;6.998;2022-10-31T01:59:11;11.82;93.30
35085;SHT85;21267;51.032;6.998;2022-10-31T02:01:39;11.96;93.14
35085;SHT85;21267;51.032;6.998;2022-10-31T02:04:06;12.16;92.23
35085;SHT85;21267;51.032;6.998;2022-10-31T02:06:53;12.25;91.79
35085;SHT85;21267;51.032;6.998;2022-10-31T02:09:22;12.14;92.10
35085;SHT85;21267;51.032;6.998;2022-10-31T02:11:56;12.21;91.94
35085;SHT85;21267;51.032;6.998;2022-10-31T02:14:25;12.03;92.35
35085;SHT85;21267;51.032;6.998;2022-10-31T02:16:53;12.16;92.11
35085;SHT85;21267;51.032;6.998;2022-10-31T02:19:46;12.13;91.96
35085;SHT85;21267;51.032;6.998;2022-10-31T02:27:53;12.25;91.77
35085;SHT85;21267;51.032;6.998;2022-10-31T02:33:42;12.04;92.38
35085;SHT85;21267;51.032;6.998;2022-10-31T02:36:16;12.20;92.13
35085;SHT85;21267;51.032;6.998;2022-10-31T02:44:00;12.14;91.88
35085;SHT85;21267;51.032;6.998;2022-10-31T02:46:57;11.85;92.69
35085;SHT85;21267;51.032;6.998;2022-10-31T02:52:01;11.62;93.66
35085;SHT85;21267;51.032;6.998;2022-10-31T02:54:28;11.83;93.54
35085;SHT85;21267;51.032;6.998;2022-10-31T02:57:00;11.82;93.35
35085;SHT85;21267;51.032;6.998;2022-10-31T02:59:30;11.62;93.54
35085;SHT85;21267;51.032;6.998;2022-10-31T03:08:08;11.43;94.28
35085;SHT85;21267;51.032;6.998;2022-10-31T03:16:13;11.32;94.49
35085;SHT85;21267;51.032;6.998;2022-10-31T03:18:44;11.45;94.24
35085;SHT85;21267;51.032;6.998;2022-10-31T03:21:15;11.45;94.33
35085;SHT85;21267;51.032;6.998;2022-10-31T03:23:44;11.41;94.11
35085;SHT85;21267;51.032;6.998;2022-10-31T03:26:13;11.62;93.71
35085;SHT85;21267;51.032;6.998;2022-10-31T03:28:47;11.66;93.48
35085;SHT85;21267;51.032;6.998;2022-10-31T03:31:17;11.65;93.06
35085;SHT85;21267;51.032;6.998;2022-10-31T03:33:46;11.69;93.07
35085;SHT85;21267;51.032;6.998;2022-10-31T03:36:15;11.78;92.89
35085;SHT85;21267;51.032;6.998;2022-10-31T03:38:43;11.63;92.94
35085;SHT85;21267;51.032;6.998;2022-10-31T03:41:16;11.48;93.62
35085;SHT85;21267;51.032;6.998;2022-10-31T03:43:52;11.41;93.99
35085;SHT85;21267;51.032;6.998;2022-10-31T03:46:21;11.41;93.95
35085;SHT85;21267;51.032;6.998;2022-10-31T03:48:47;11.59;93.34
35085;SHT85;21267;51.032;6.998;2022-10-31T03:51:28;11.60;93.16
35085;SHT85;21267;51.032;6.998;2022-10-31T03:56:43;11.60;93.19
35085;SHT85;21267;51.032;6.998;2022-10-31T03:59:17;11.36;93.67
35085;SHT85;21267;51.032;6.998;2022-10-31T04:01:48;11.29;93.98
35085;SHT85;21267;51.032;6.998;2022-10-31T04:04:18;11.28;94.20
35085;SHT85;21267;51.032;6.998;2022-10-31T04:06:46;11.27;94.21
35085;SHT85;21267;51.032;6.998;2022-10-31T04:09:13;11.24;94.40
35085;SHT85;21267;51.032;6.998;2022-10-31T04:11:45;11.32;94.16
35085;SHT85;21267;51.032;6.998;2022-10-31T04:14:22;11.28;94.10
35085;SHT85;21267;51.032;6.998;2022-10-31T04:16:50;11.32;94.29
35085;SHT85;21267;51.032;6.998;2022-10-31T04:19:17;11.48;93.96
35085;SHT85;21267;51.032;6.998;2022-10-31T04:21:44;11.53;93.69
35085;SHT85;21267;51.032;6.998;2022-10-31T04:24:10;11.55;93.35
35085;SHT85;21267;51.032;6.998;2022-10-31T04:26:37;11.53;93.38
35085;SHT85;21267;51.032;6.998;2022-10-31T04:29:04;11.48;93.68
35085;SHT85;21267;51.032;6.998;2022-10-31T04:31:30;11.56;93.38
35085;SHT85;21267;51.032;6.998;2022-10-31T04:33:57;11.56;93.26
35085;SHT85;21267;51.032;6.998;2022-10-31T04:36:23;11.59;93.25
35085;SHT85;21267;51.032;6.998;2022-10-31T04:38:50;11.48;93.55
35085;SHT85;21267;51.032;6.998;2022-10-31T04:41:16;11.38;93.81
35085;SHT85;21267;51.032;6.998;2022-10-31T04:43:43;11.31;94.18
35085;SHT85;21267;51.032;6.998;2022-10-31T04:46:10;11.29;94.21
35085;SHT85;21267;51.032;6.998;2022-10-31T04:48:36;11.38;94.20
35085;SHT85;21267;51.032;6.998;2022-10-31T04:51:03;11.46;93.85
35085;SHT85;21267;51.032;6.998;2022-10-31T04:53:29;11.36;93.96
35085;SHT85;21267;51.032;6.998;2022-10-31T04:55:58;11.28;94.35
35085;SHT85;21267;51.032;6.998;2022-10-31T04:58:26;11.34;94.40
35085;SHT85;21267;51.032;6.998;2022-10-31T05:00:53;11.52;93.66
35085;SHT85;21267;51.032;6.998;2022-10-31T05:03:21;11.56;93.54
35085;SHT85;21267;51.032;6.998;2022-10-31T05:05:47;11.59;93.48
35085;SHT85;21267;51.032;6.998;2022-10-31T05:08:14;11.67;93.29
35085;SHT85;21267;51.032;6.998;2022-10-31T05:10:41;11.66;93.13
35085;SHT85;21267;51.032;6.998;2022-10-31T05:13:08;11.78;92.96
35085;SHT85;21267;51.032;6.998;2022-10-31T05:15:35;11.71;93.26
35085;SHT85;21267;51.032;6.998;2022-10-31T05:18:01;11.67;93.20
35085;SHT85;21267;51.032;6.998;2022-10-31T05:20:30;11.67;93.21
35085;SHT85;21267;51.032;6.998;2022-10-31T05:22:57;11.60;93.41
35085;SHT85;21267;51.032;6.998;2022-10-31T05:25:27;11.55;93.63
35085;SHT85;21267;51.032;6.998;2022-10-31T05:27:55;11.53;93.71
35085;SHT85;21267;51.032;6.998;2022-10-31T05:30:26;11.52;93.71
35085;SHT85;21267;51.032;6.998;2022-10-31T05:32:53;11.48;93.89
35085;SHT85;21267;51.032;6.998;2022-10-31T05:35:25;11.43;93.97
35085;SHT85;21267;51.032;6.998;2022-10-31T05:37:52;11.45;94.03
35085;SHT85;21267;51.032;6.998;2022-10-31T05:40:20;11.59;93.85
35085;SHT85;21267;51.032;6.998;2022-10-31T05:42:52;11.50;93.89
35085;SHT85;21267;51.032;6.998;2022-10-31T05:45:22;11.58;93.74
35085;SHT85;21267;51.032;6.998;2022-10-31T05:47:59;11.46;94.08
35085;SHT85;21267;51.032;6.998;2022-10-31T05:50:28;11.38;94.16
35085;SHT85;21267;51.032;6.998;2022-10-31T05:52:58;11.39;94.38
35085;SHT85;21267;51.032;6.998;2022-10-31T05:55:25;11.32;94.44
35085;SHT85;21267;51.032;6.998;2022-10-31T05:57:53;11.34;94.26
35085;SHT85;21267;51.032;6.998;2022-10-31T06:00:20;11.41;94.16
35085;SHT85;21267;51.032;6.998;2022-10-31T06:02:48;11.28;94.49
35085;SHT85;21267;51.032;6.998;2022-10-31T06:05:15;11.24;94.49
35085;SHT85;21267;51.032;6.998;2022-10-31T06:07:42;11.27;94.46
35085;SHT85;21267;51.032;6.998;2022-10-31T06:10:09;11.24;94.55
35085;SHT85;21267;51.032;6.998;2022-10-31T06:12:36;11.29;94.42
35085;SHT85;21267;51.032;6.998;2022-10-31T06:15:05;11.28;94.62
35085;SHT85;21267;51.032;6.998;2022-10-31T06:17:33;11.24;94.70
35085;SHT85;21267;51.032;6.998;2022-10-31T06:20:00;11.39;94.27
35085;SHT85;21267;51.032;6.998;2022-10-31T06:22:27;11.46;93.84
35085;SHT85;21267;51.032;6.998;2022-10-31T06:24:53;11.46;93.81
35085;SHT85;21267;51.032;6.998;2022-10-31T06:27:20;11.49;93.77
35085;SHT85;21267;51.032;6.998;2022-10-31T06:29:47;11.45;93.77
35085;SHT85;21267;51.032;6.998;2022-10-31T06:32:14;11.48;93.75
35085;SHT85;21267;51.032;6.998;2022-10-31T06:34:42;11.41;94.12
35085;SHT85;21267;51.032;6.998;2022-10-31T06:37:10;11.38;94.28
35085;SHT85;21267;51.032;6.998;2022-10-31T06:39:38;11.49;94.11
35085;SHT85;21267;51.032;6.998;2022-10-31T06:42:05;11.48;93.89
35085;SHT85;21267;51.032;6.998;2022-10-31T06:44:32;11.52;93.99
35085;SHT85;21267;51.032;6.998;2022-10-31T06:46:59;11.58;93.71
35085;SHT85;21267;51.032;6.998;2022-10-31T06:49:25;11.73;93.31
35085;SHT85;21267;51.032;6.998;2022-10-31T06:51:52;11.76;93.20
35085;SHT85;21267;51.032;6.998;2022-10-31T06:54:18;11.73;93.29
35085;SHT85;21267;51.032;6.998;2022-10-31T06:56:46;11.79;93.13
35085;SHT85;21267;51.032;6.998;2022-10-31T06:59:14;11.73;93.15
35085;SHT85;21267;51.032;6.998;2022-10-31T07:01:40;11.83;93.36
35085;SHT85;21267;51.032;6.998;2022-10-31T07:04:09;11.73;93.27
35085;SHT85;21267;51.032;6.998;2022-10-31T07:06:37;11.80;93.03
35085;SHT85;21267;51.032;6.998;2022-10-31T07:09:04;11.79;93.29
35085;SHT85;21267;51.032;6.998;2022-10-31T07:11:30;11.99;92.66
35085;SHT85;21267;51.032;6.998;2022-10-31T07:13:57;11.96;92.62
35085;SHT85;21267;51.032;6.998;2022-10-31T07:16:23;12.13;92.31
35085;SHT85;21267;51.032;6.998;2022-10-31T07:18:50;12.21;91.93
35085;SHT85;21267;51.032;6.998;2022-10-31T07:21:16;12.25;91.65
35085;SHT85;21267;51.032;6.998;2022-10-31T07:23:43;12.42;91.39
35085;SHT85;21267;51.032;6.998;2022-10-31T07:26:10;12.42;91.27
35085;SHT85;21267;51.032;6.998;2022-10-31T07:28:36;12.37;91.36
35085;SHT85;21267;51.032;6.998;2022-10-31T07:33:38;12.65;91.05
35085;SHT85;21267;51.032;6.998;2022-10-31T07:36:05;12.62;90.81
35085;SHT85;21267;51.032;6.998;2022-10-31T07:38:32;12.75;90.54
35085;SHT85;21267;51.032;6.998;2022-10-31T07:40:58;12.71;90.52
35085;SHT85;21267;51.032;6.998;2022-10-31T07:43:25;12.65;90.84
35085;SHT85;21267;51.032;6.998;2022-10-31T07:45:52;12.76;90.44
35085;SHT85;21267;51.032;6.998;2022-10-31T07:48:22;12.72;90.34
35085;SHT85;21267;51.032;6.998;2022-10-31T07:50:49;12.79;90.24
35085;SHT85;21267;51.032;6.998;2022-10-31T07:53:15;12.89;90.15
35085;SHT85;21267;51.032;6.998;2022-10-31T07:55:42;12.95;89.94
35085;SHT85;21267;51.032;6.998;2022-10-31T07:58:15;12.96;89.75
35085;SHT85;21267;51.032;6.998;2022-10-31T08:00:44;13.04;89.42
35085;SHT85;21267;51.032;6.998;2022-10-31T08:03:16;12.88;89.78
35085;SHT85;21267;51.032;6.998;2022-10-31T08:05:43;13.00;89.54
35085;SHT85;21267;51.032;6.998;2022-10-31T08:08:12;12.93;89.83
35085;SHT85;21267;51.032;6.998;2022-10-31T08:10:39;13.02;89.64
35085;SHT85;21267;51.032;6.998;2022-10-31T08:13:12;13.10;89.32
35085;SHT85;21267;51.032;6.998;2022-10-31T08:15:39;13.33;89.06
35085;SHT85;21267;51.032;6.998;2022-10-31T08:18:13;13.30;88.66
35085;SHT85;21267;51.032;6.998;2022-10-31T08:20:41;13.24;88.56
35085;SHT85;21267;51.032;6.998;2022-10-31T08:23:09;13.23;88.71
35085;SHT85;21267;51.032;6.998;2022-10-31T08:25:36;13.28;88.78
35085;SHT85;21267;51.032;6.998;2022-10-31T08:28:05;13.36;88.56
35085;SHT85;21267;51.032;6.998;2022-10-31T08:30:33;13.46;88.45
35085;SHT85;21267;51.032;6.998;2022-10-31T08:33:14;13.57;88.00
35085;SHT85;21267;51.032;6.998;2022-10-31T08:35:41;13.69;87.91
35085;SHT85;21267;51.032;6.998;2022-10-31T08:38:09;13.77;87.81
35085;SHT85;21267;51.032;6.998;2022-10-31T08:40:36;13.82;87.67
35085;SHT85;21267;51.032;6.998;2022-10-31T08:43:04;13.94;87.43
35085;SHT85;21267;51.032;6.998;2022-10-31T08:45:33;14.04;87.09
35085;SHT85;21267;51.032;6.998;2022-10-31T08:48:02;14.20;86.75
35085;SHT85;21267;51.032;6.998;2022-10-31T08:50:31;14.23;86.47
35085;SHT85;21267;51.032;6.998;2022-10-31T08:53:06;14.33;86.02
35085;SHT85;21267;51.032;6.998;2022-10-31T08:55:34;14.44;86.01
35085;SHT85;21267;51.032;6.998;2022-10-31T08:58:03;14.36;85.48
35085;SHT85;21267;51.032;6.998;2022-10-31T09:00:32;14.40;85.22
35085;SHT85;21267;51.032;6.998;2022-10-31T09:03:01;14.33;85.41
35085;SHT85;21267;51.032;6.998;2022-10-31T09:05:28;14.30;85.84
35085;SHT85;21267;51.032;6.998;2022-10-31T09:07:56;14.54;85.44
35085;SHT85;21267;51.032;6.998;2022-10-31T09:10:28;14.46;85.69
35085;SHT85;21267;51.032;6.998;2022-10-31T09:13:00;14.33;85.44
35085;SHT85;21267;51.032;6.998;2022-10-31T09:15:28;14.30;85.88
35085;SHT85;21267;51.032;6.998;2022-10-31T09:17:55;14.38;85.78
35085;SHT85;21267;51.032;6.998;2022-10-31T09:20:23;14.44;85.70
35085;SHT85;21267;51.032;6.998;2022-10-31T09:23:00;14.56;85.71
35085;SHT85;21267;51.032;6.998;2022-10-31T09:25:28;14.73;85.39
35085;SHT85;21267;51.032;6.998;2022-10-31T09:27:59;14.60;85.21
35085;SHT85;21267;51.032;6.998;2022-10-31T09:30:27;14.75;84.70
35085;SHT85;21267;51.032;6.998;2022-10-31T09:32:59;14.75;84.94
35085;SHT85;21267;51.032;6.998;2022-10-31T09:35:27;14.98;84.44
35085;SHT85;21267;51.032;6.998;2022-10-31T09:38:05;15.09;84.14
35085;SHT85;21267;51.032;6.998;2022-10-31T09:51:41;15.94;81.85
35085;SHT85;21267;51.032;6.998;2022-10-31T09:54:15;16.28;80.66
35085;SHT85;21267;51.032;6.998;2022-10-31T09:56:43;16.61;80.00
35085;SHT85;21267;51.032;6.998;2022-10-31T09:59:18;16.68;80.04
35085;SHT85;21267;51.032;6.998;2022-10-31T10:01:59;17.42;78.03
35085;SHT85;21267;51.032;6.998;2022-10-31T10:07:19;17.79;76.78
35085;SHT85;21267;51.032;6.998;2022-10-31T10:09:47;17.99;76.32
35085;SHT85;21267;51.032;6.998;2022-10-31T10:20:05;19.82;69.92
35085;SHT85;21267;51.032;6.998;2022-10-31T10:22:47;20.26;68.90
35085;SHT85;21267;51.032;6.998;2022-10-31T10:25:22;20.63;67.91
35085;SHT85;21267;51.032;6.998;2022-10-31T10:28:22;21.42;66.24
35085;SHT85;21267;51.032;6.998;2022-10-31T10:31:10;22.13;64.51
35085;SHT85;21267;51.032;6.998;2022-10-31T10:33:44;21.89;64.66
35085;SHT85;21267;51.032;6.998;2022-10-31T10:36:19;21.95;63.59
35085;SHT85;21267;51.032;6.998;2022-10-31T10:41:17;20.25;67.12
35085;SHT85;21267;51.032;6.998;2022-10-31T10:43:44;20.25;68.97
35085;SHT85;21267;51.032;6.998;2022-10-31T10:46:42;19.97;68.56
35085;SHT85;21267;51.032;6.998;2022-10-31T10:49:50;19.78;68.93
35085;SHT85;21267;51.032;6.998;2022-10-31T10:55:16;20.57;67.93
35085;SHT85;21267;51.032;6.998;2022-10-31T11:00:34;20.24;68.95
35085;SHT85;21267;51.032;6.998;2022-10-31T11:03:02;20.25;68.46
35085;SHT85;21267;51.032;6.998;2022-10-31T11:05:36;19.92;69.11
35085;SHT85;21267;51.032;6.998;2022-10-31T11:08:06;20.09;68.53
35085;SHT85;21267;51.032;6.998;2022-10-31T11:10:33;20.14;67.81
35085;SHT85;21267;51.032;6.998;2022-10-31T11:15:55;19.82;68.96
35085;SHT85;21267;51.032;6.998;2022-10-31T11:18:26;19.66;69.31
35085;SHT85;21267;51.032;6.998;2022-10-31T11:20:57;19.50;69.78
35085;SHT85;21267;51.032;6.998;2022-10-31T11:23:25;19.90;69.12
35085;SHT85;21267;51.032;6.998;2022-10-31T11:26:02;20.01;68.81
35085;SHT85;21267;51.032;6.998;2022-10-31T11:28:30;20.28;68.45
35085;SHT85;21267;51.032;6.998;2022-10-31T11:31:00;20.77;67.16
35085;SHT85;21267;51.032;6.998;2022-10-31T11:33:37;21.13;65.91
35085;SHT85;21267;51.032;6.998;2022-10-31T11:36:21;21.01;65.93
35085;SHT85;21267;51.032;6.998;2022-10-31T11:38:49;21.06;65.67
35085;SHT85;21267;51.032;6.998;2022-10-31T11:41:26;20.48;65.96
35085;SHT85;21267;51.032;6.998;2022-10-31T11:43:59;20.18;66.90
35085;SHT85;21267;51.032;6.998;2022-10-31T11:48:59;19.88;67.35
35085;SHT85;21267;51.032;6.998;2022-10-31T11:51:31;20.33;66.85
35085;SHT85;21267;51.032;6.998;2022-10-31T11:54:00;20.46;66.41
35085;SHT85;21267;51.032;6.998;2022-10-31T11:56:42;20.56;66.01
35085;SHT85;21267;51.032;6.998;2022-10-31T11:59:30;20.90;65.43
35085;SHT85;21267;51.032;6.998;2022-10-31T12:01:58;21.16;64.52
35085;SHT85;21267;51.032;6.998;2022-10-31T12:04:32;21.11;64.35
35085;SHT85;21267;51.032;6.998;2022-10-31T12:07:01;21.45;63.92
35085;SHT85;21267;51.032;6.998;2022-10-31T12:09:30;22.12;63.06
35085;SHT85;21267;51.032;6.998;2022-10-31T12:17:18;21.42;63.74
35085;SHT85;21267;51.032;6.998;2022-10-31T12:20:41;21.49;63.19
35085;SHT85;21267;51.032;6.998;2022-10-31T12:26:08;21.30;63.09
35085;SHT85;21267;51.032;6.998;2022-10-31T12:29:21;21.10;63.42
35085;SHT85;21267;51.032;6.998;2022-10-31T12:39:25;21.16;63.61
35085;SHT85;21267;51.032;6.998;2022-10-31T12:42:19;21.27;63.93
35085;SHT85;21267;51.032;6.998;2022-10-31T12:51:02;20.96;64.01
35085;SHT85;21267;51.032;6.998;2022-10-31T12:53:54;20.53;65.03
35085;SHT85;21267;51.032;6.998;2022-10-31T12:59:29;20.87;64.89
35085;SHT85;21267;51.032;6.998;2022-10-31T13:01:59;20.73;65.15
35085;SHT85;21267;51.032;6.998;2022-10-31T13:07:21;20.59;65.31
35085;SHT85;21267;51.032;6.998;2022-10-31T13:10:00;20.32;65.91
35085;SHT85;21267;51.032;6.998;2022-10-31T13:12:33;20.28;65.88
35085;SHT85;21267;51.032;6.998;2022-10-31T13:15:13;20.42;65.72
35085;SHT85;21267;51.032;6.998;2022-10-31T13:17:49;20.21;65.48
35085;SHT85;21267;51.032;6.998;2022-10-31T13:20:26;20.26;65.92
35085;SHT85;21267;51.032;6.998;2022-10-31T13:25:54;20.33;65.68
35085;SHT85;21267;51.032;6.998;2022-10-31T13:28:43;20.43;65.71
35085;SHT85;21267;51.032;6.998;2022-10-31T13:31:10;20.21;65.97
35085;SHT85;21267;51.032;6.998;2022-10-31T13:33:47;20.36;65.46
35085;SHT85;21267;51.032;6.998;2022-10-31T13:36:20;20.39;65.38
35085;SHT85;21267;51.032;6.998;2022-10-31T13:39:23;20.33;65.59
35085;SHT85;21267;51.032;6.998;2022-10-31T13:44:22;20.28;65.90
35085;SHT85;21267;51.032;6.998;2022-10-31T13:46:54;20.22;66.19
35085;SHT85;21267;51.032;6.998;2022-10-31T13:51:50;20.12;66.37
35085;SHT85;21267;51.032;6.998;2022-10-31T13:54:32;20.11;66.49
35085;SHT85;21267;51.032;6.998;2022-10-31T13:56:59;19.94;66.52
35085;SHT85;21267;51.032;6.998;2022-10-31T13:59:28;20.01;66.76
35085;SHT85;21267;51.032;6.998;2022-10-31T14:01:56;19.91;67.08
35085;SHT85;21267;51.032;6.998;2022-10-31T14:04:28;20.01;67.20
35085;SHT85;21267;51.032;6.998;2022-10-31T14:07:10;19.94;67.18
35085;SHT85;21267;51.032;6.998;2022-10-31T14:09:41;19.87;67.17
35085;SHT85;21267;51.032;6.998;2022-10-31T14:15:24;19.87;67.60
35085;SHT85;21267;51.032;6.998;2022-10-31T14:18:00;19.82;67.71
35085;SHT85;21267;51.032;6.998;2022-10-31T14:20:44;19.78;67.75
35085;SHT85;21267;51.032;6.998;2022-10-31T14:26:16;19.71;68.15
35085;SHT85;21267;51.032;6.998;2022-10-31T14:28:44;19.78;67.88
35085;SHT85;21267;51.032;6.998;2022-10-31T14:31:34;19.78;67.94
35085;SHT85;21267;51.032;6.998;2022-10-31T14:34:18;19.77;67.97
35085;SHT85;21267;51.032;6.998;2022-10-31T14:39:25;19.71;67.97
35085;SHT85;21267;51.032;6.998;2022-10-31T14:44:49;19.78;67.93
35085;SHT85;21267;51.032;6.998;2022-10-31T14:47:38;19.68;68.19
35085;SHT85;21267;51.032;6.998;2022-10-31T14:50:19;19.66;68.24
35085;SHT85;21267;51.032;6.998;2022-10-31T14:52:50;19.67;68.18
35085;SHT85;21267;51.032;6.998;2022-10-31T14:55:18;19.61;68.45
35085;SHT85;21267;51.032;6.998;2022-10-31T14:57:56;19.66;68.29
35085;SHT85;21267;51.032;6.998;2022-10-31T15:00:24;19.61;68.37
35085;SHT85;21267;51.032;6.998;2022-10-31T15:03:15;19.67;68.22
35085;SHT85;21267;51.032;6.998;2022-10-31T15:05:47;19.68;68.25
35085;SHT85;21267;51.032;6.998;2022-10-31T15:10:53;19.63;68.20
35085;SHT85;21267;51.032;6.998;2022-10-31T15:13:21;19.64;68.30
35085;SHT85;21267;51.032;6.998;2022-10-31T15:15:54;19.63;67.81
35085;SHT85;21267;51.032;6.998;2022-10-31T15:18:25;19.63;67.92
35085;SHT85;21267;51.032;6.998;2022-10-31T15:20:54;19.56;67.49
35085;SHT85;21267;51.032;6.998;2022-10-31T15:23:26;19.57;67.41
35085;SHT85;21267;51.032;6.998;2022-10-31T15:26:04;19.49;67.66
35085;SHT85;21267;51.032;6.998;2022-10-31T15:28:31;19.54;67.24
35085;SHT85;21267;51.032;6.998;2022-10-31T15:31:00;19.53;66.90
35085;SHT85;21267;51.032;6.998;2022-10-31T15:33:29;19.54;66.55
35085;SHT85;21267;51.032;6.998;2022-10-31T15:36:03;19.47;66.44
35085;SHT85;21267;51.032;6.998;2022-10-31T15:38:30;19.43;66.27
35085;SHT85;21267;51.032;6.998;2022-10-31T15:43:46;19.32;66.02
35085;SHT85;21267;51.032;6.998;2022-10-31T15:46:13;19.24;65.90
35085;SHT85;21267;51.032;6.998;2022-10-31T15:48:44;19.19;65.86
35085;SHT85;21267;51.032;6.998;2022-10-31T15:51:12;19.15;65.98
35085;SHT85;21267;51.032;6.998;2022-10-31T15:53:48;19.08;66.38
35085;SHT85;21267;51.032;6.998;2022-10-31T15:56:31;19.06;65.98
35085;SHT85;21267;51.032;6.998;2022-10-31T15:59:19;18.94;66.41
35085;SHT85;21267;51.032;6.998;2022-10-31T16:02:07;18.85;66.60
35085;SHT85;21267;51.032;6.998;2022-10-31T16:13:36;18.64;66.74
35085;SHT85;21267;51.032;6.998;2022-10-31T16:16:12;18.52;67.21
35085;SHT85;21267;51.032;6.998;2022-10-31T16:19:00;18.51;67.29
35085;SHT85;21267;51.032;6.998;2022-10-31T16:21:33;18.38;67.51
35085;SHT85;21267;51.032;6.998;2022-10-31T16:24:04;18.27;67.87
35085;SHT85;21267;51.032;6.998;2022-10-31T16:26:32;18.20;68.16
35085;SHT85;21267;51.032;6.998;2022-10-31T16:28:59;18.13;68.41
35085;SHT85;21267;51.032;6.998;2022-10-31T16:31:39;18.10;68.42
35085;SHT85;21267;51.032;6.998;2022-10-31T16:34:21;18.10;68.48
35085;SHT85;21267;51.032;6.998;2022-10-31T16:36:52;18.13;68.33
35085;SHT85;21267;51.032;6.998;2022-10-31T16:39:19;17.99;68.74
35085;SHT85;21267;51.032;6.998;2022-10-31T16:41:48;17.96;68.89
35085;SHT85;21267;51.032;6.998;2022-10-31T16:44:19;17.89;69.17
35085;SHT85;21267;51.032;6.998;2022-10-31T16:46:47;17.87;69.08
35085;SHT85;21267;51.032;6.998;2022-10-31T16:49:13;17.83;69.26
35085;SHT85;21267;51.032;6.998;2022-10-31T16:51:42;17.87;69.17
35085;SHT85;21267;51.032;6.998;2022-10-31T16:54:09;17.83;69.33
35085;SHT85;21267;51.032;6.998;2022-10-31T16:56:37;17.85;69.21
35085;SHT85;21267;51.032;6.998;2022-10-31T16:59:10;17.78;69.30
35085;SHT85;21267;51.032;6.998;2022-10-31T17:01:42;17.85;69.15
35085;SHT85;21267;51.032;6.998;2022-10-31T17:04:14;17.82;69.24
35085;SHT85;21267;51.032;6.998;2022-10-31T17:06:41;17.81;69.35
35085;SHT85;21267;51.032;6.998;2022-10-31T17:09:08;17.81;69.34
35085;SHT85;21267;51.032;6.998;2022-10-31T17:11:35;17.82;69.19
35085;SHT85;21267;51.032;6.998;2022-10-31T17:14:03;17.81;69.18
35085;SHT85;21267;51.032;6.998;2022-10-31T17:16:44;17.73;69.35
35085;SHT85;21267;51.032;6.998;2022-10-31T17:19:11;17.72;69.54
35085;SHT85;21267;51.032;6.998;2022-10-31T17:21:41;17.73;69.39
35085;SHT85;21267;51.032;6.998;2022-10-31T17:24:21;17.69;69.47
35085;SHT85;21267;51.032;6.998;2022-10-31T17:26:48;17.62;69.67
35085;SHT85;21267;51.032;6.998;2022-10-31T17:29:14;17.54;70.11
35085;SHT85;21267;51.032;6.998;2022-10-31T17:31:41;17.54;69.99
35085;SHT85;21267;51.032;6.998;2022-10-31T17:34:08;17.48;70.27
35085;SHT85;21267;51.032;6.998;2022-10-31T17:36:35;17.57;70.05
35085;SHT85;21267;51.032;6.998;2022-10-31T17:39:02;17.59;69.94
35085;SHT85;21267;51.032;6.998;2022-10-31T17:41:30;17.50;70.05
35085;SHT85;21267;51.032;6.998;2022-10-31T17:43:58;17.52;70.03
35085;SHT85;21267;51.032;6.998;2022-10-31T17:46:25;17.47;70.04
35085;SHT85;21267;51.032;6.998;2022-10-31T17:48:52;17.48;70.04
35085;SHT85;21267;51.032;6.998;2022-10-31T17:51:18;17.59;70.02
35085;SHT85;21267;51.032;6.998;2022-10-31T17:53:45;17.51;70.30
35085;SHT85;21267;51.032;6.998;2022-10-31T17:56:11;17.65;69.94
35085;SHT85;21267;51.032;6.998;2022-10-31T17:58:38;17.59;69.99
35085;SHT85;21267;51.032;6.998;2022-10-31T18:01:13;17.57;70.18
35085;SHT85;21267;51.032;6.998;2022-10-31T18:03:40;17.50;70.44
35085;SHT85;21267;51.032;6.998;2022-10-31T18:06:07;17.52;70.52
35085;SHT85;21267;51.032;6.998;2022-10-31T18:08:38;17.45;70.83
35085;SHT85;21267;51.032;6.998;2022-10-31T18:11:12;17.41;70.90
35085;SHT85;21267;51.032;6.998;2022-10-31T18:13:40;17.40;71.21